< < Back
Terminal Aerodrome Forecast


Current Version              Previous Versions:   1  2  3  4  5  6  7  8  9  

Terminal Aerodrome Forecast

339
FTUS42 KJAX 021100
TAFSSI
TAF
KSSI 021120Z 0212/0312 36004KT P6SM SCT030 BKN080
     FM021300 03006KT P6SM BKN040
     FM021700 06009KT P6SM SCT040 BKN070
     FM030000 08006KT P6SM SCT030 SCT070=

Latest METAR

712
SAUS70 KWBC 021400 RRQ
MTRSSI
METAR KSSI 021353Z AUTO 10SM CLR 26/21 A3009 RMK AO2 SLP188
T02610211


USA.gov is the U.S. government's official web portal to all federal, state and local government web resources and services.